createdAt,value
2019-04-01T00:01:03.417Z,64.15
2019-04-01T00:03:32.490Z,68.07
2019-04-01T00:06:01.578Z,69.97
2019-04-01T00:08:30.581Z,64.10
2019-04-01T00:10:59.673Z,78.55
2019-04-01T00:13:28.603Z,73.30
2019-04-01T00:15:57.693Z,70.62
2019-04-01T00:18:26.653Z,73.22
2019-04-01T00:20:55.660Z,69.10
2019-04-01T00:23:24.648Z,75.45
2019-04-01T00:25:53.743Z,69.30
2019-04-01T00:28:22.643Z,75.03
2019-04-01T00:30:52.652Z,87.50
2019-04-01T00:33:21.638Z,87.60
2019-04-01T00:35:50.705Z,82.12
2019-04-01T00:38:19.719Z,88.30
2019-04-01T00:40:48.715Z,79.22
2019-04-01T00:43:39.880Z,82.05
2019-04-01T00:46:10.373Z,79.37
2019-04-01T00:48:39.366Z,77.32
2019-04-01T00:51:08.420Z,79.58
2019-04-01T00:53:37.383Z,89.13
2019-04-01T00:56:06.453Z,80.07
2019-04-01T00:58:35.382Z,81.40
2019-04-01T01:01:05.814Z,89.07
2019-04-01T01:03:34.966Z,89.00
2019-04-01T01:06:03.948Z,77.60
2019-04-01T01:08:33.021Z,77.67
2019-04-01T01:11:01.956Z,80.47
2019-04-01T01:13:31.001Z,80.77
2019-04-01T01:15:59.962Z,76.45
2019-04-01T01:18:28.899Z,89.25
2019-04-01T01:20:58.022Z,85.03
2019-04-01T01:23:27.057Z,74.97
2019-04-01T01:25:56.102Z,86.92
2019-04-01T01:28:25.069Z,78.70
2019-04-01T01:30:54.700Z,88.33
2019-04-01T01:33:23.694Z,81.40
2019-04-01T01:35:52.770Z,79.58
2019-04-01T01:38:21.787Z,85.05
2019-04-01T01:40:50.768Z,86.05
2019-04-01T01:43:19.715Z,76.25
2019-04-01T01:45:48.673Z,87.27
2019-04-01T01:48:17.643Z,94.20
2019-04-01T01:50:46.587Z,95.40
2019-04-01T01:53:15.519Z,73.65
2019-04-01T01:55:44.592Z,97.08
2019-04-01T01:58:13.526Z,76.97
2019-04-01T02:00:42.701Z,78.70
2019-04-01T02:03:11.700Z,80.50
2019-04-01T02:05:40.861Z,84.13
2019-04-01T02:08:09.906Z,78.60
2019-04-01T02:10:38.959Z,75.87
2019-04-01T02:13:07.919Z,78.65
2019-04-01T02:15:36.942Z,78.50
2019-04-01T02:18:05.991Z,78.52
2019-04-01T02:20:36.056Z,88.60
2019-04-01T02:23:05.184Z,79.87
2019-04-01T02:25:34.767Z,90.35
2019-04-01T02:28:03.701Z,79.00
2019-04-01T02:30:32.773Z,74.97
2019-04-01T02:33:01.753Z,95.30
2019-04-01T02:35:30.837Z,77.10
2019-04-01T02:37:59.786Z,75.97
2019-04-01T02:40:28.836Z,73.28
2019-04-01T02:42:58.086Z,73.15
2019-04-01T02:45:27.050Z,88.00
2019-04-01T02:47:56.087Z,89.05
2019-04-01T02:50:25.158Z,76.25
2019-04-01T02:52:54.184Z,83.17
2019-04-01T02:55:23.200Z,79.55
2019-04-01T02:57:52.334Z,78.55
2019-04-01T03:00:21.487Z,86.53
2019-04-01T03:02:50.586Z,79.87
2019-04-01T03:05:19.678Z,81.75
2019-04-01T03:07:48.777Z,87.20
2019-04-01T03:10:19.886Z,71.37
2019-04-01T03:12:48.832Z,75.50
2019-04-01T03:15:17.801Z,78.47
2019-04-01T03:17:46.810Z,81.10
2019-04-01T03:20:15.891Z,92.88
2019-04-01T03:22:44.932Z,78.22
2019-04-01T03:25:14.084Z,90.17
2019-04-01T03:27:43.142Z,86.53
2019-04-01T03:30:12.232Z,90.47
2019-04-01T03:32:45.107Z,84.83
2019-04-01T03:35:11.994Z,83.65
2019-04-01T03:37:41.065Z,77.45
2019-04-01T03:40:10.148Z,83.05
2019-04-01T03:42:39.095Z,73.47
2019-04-01T03:45:08.241Z,82.70
2019-04-01T03:47:37.258Z,90.40
2019-04-01T03:50:06.348Z,67.67
2019-04-01T03:52:35.344Z,78.95
2019-04-01T03:55:04.617Z,78.67
2019-04-01T03:57:33.629Z,83.62
2019-04-01T04:00:02.698Z,85.32
2019-04-01T04:02:31.683Z,78.60
2019-04-01T04:05:00.653Z,81.95
2019-04-01T04:07:29.681Z,73.33
2019-04-01T04:10:02.877Z,85.17
2019-04-01T04:12:31.801Z,86.80
2019-04-01T04:15:00.695Z,81.47
2019-04-01T04:17:29.625Z,81.42
2019-04-01T04:19:58.543Z,81.90
2019-04-01T04:22:27.543Z,78.92
2019-04-01T04:24:56.697Z,86.00
2019-04-01T04:27:25.630Z,80.25
2019-04-01T04:29:54.786Z,83.37
2019-04-01T04:32:23.796Z,80.75
2019-04-01T04:34:56.899Z,74.55
2019-04-01T04:37:23.475Z,88.40
2019-04-01T04:39:52.603Z,86.57
2019-04-01T04:42:21.609Z,85.80
2019-04-01T04:44:50.544Z,90.57
2019-04-01T04:47:19.662Z,88.00
2019-04-01T04:49:48.725Z,91.78
2019-04-01T04:52:17.744Z,85.92
2019-04-01T04:54:47.018Z,84.35
2019-04-01T04:57:20.256Z,89.40
2019-04-01T04:59:47.573Z,86.35
2019-04-01T05:02:16.505Z,87.35
2019-04-01T05:04:45.409Z,82.85
2019-04-01T05:07:14.336Z,86.85
2019-04-01T05:09:43.398Z,78.30
2019-04-01T05:12:12.338Z,79.62
2019-04-01T05:14:41.424Z,85.53
2019-04-01T05:17:10.465Z,88.30
2019-04-01T05:19:39.473Z,88.05
2019-04-01T05:22:08.816Z,88.07
2019-04-01T05:24:38.015Z,91.82
2019-04-01T05:27:08.319Z,83.42
2019-04-01T05:29:38.796Z,87.72
2019-04-01T05:32:10.318Z,87.75
2019-04-01T05:34:41.456Z,89.95
2019-04-01T05:37:10.461Z,76.80
2019-04-01T05:39:39.480Z,76.60
2019-04-01T05:42:08.851Z,83.92
2019-04-01T05:44:38.050Z,72.35
2019-04-01T05:47:07.331Z,83.90
2019-04-01T05:49:37.716Z,81.00
2019-04-01T05:52:06.998Z,78.28
2019-04-01T05:54:36.111Z,83.58
2019-04-01T05:57:05.553Z,79.37
2019-04-01T05:59:34.634Z,78.07
2019-04-01T06:02:04.238Z,83.75
2019-04-01T06:04:33.233Z,85.25
2019-04-01T06:07:02.393Z,78.92
2019-04-01T06:09:31.465Z,80.00
2019-04-01T06:12:00.412Z,78.95
2019-04-01T06:14:29.445Z,78.07
2019-04-01T06:16:58.775Z,86.20
2019-04-01T06:19:28.282Z,82.35
2019-04-01T06:22:00.546Z,89.00
2019-04-01T06:24:29.665Z,88.55
2019-04-01T06:26:59.671Z,82.17
2019-04-01T06:29:28.637Z,78.35
2019-04-01T06:31:57.684Z,74.95
2019-04-01T06:34:26.844Z,74.20
2019-04-01T06:36:55.820Z,74.77
2019-04-01T06:39:24.815Z,85.90
2019-04-01T06:41:54.081Z,82.78
2019-04-01T06:44:23.060Z,77.53
2019-04-01T06:46:52.057Z,74.30
2019-04-01T06:49:21.062Z,79.10
2019-04-01T06:51:50.049Z,78.47
2019-04-01T06:54:19.135Z,80.90
2019-04-01T06:56:48.181Z,84.97
2019-04-01T06:59:18.297Z,87.08
2019-04-01T07:01:47.281Z,85.45
2019-04-01T07:04:16.215Z,70.55
2019-04-01T07:06:45.288Z,70.17
2019-04-01T07:09:14.318Z,90.03
2019-04-01T07:11:43.423Z,93.03
2019-04-01T07:14:12.569Z,81.30
2019-04-01T07:16:41.796Z,79.05
2019-04-01T07:19:10.776Z,84.20
2019-04-01T07:21:39.787Z,80.77
2019-04-01T07:24:08.734Z,88.47
2019-04-01T07:26:37.747Z,81.78
2019-04-01T07:29:06.836Z,78.20
2019-04-01T07:31:35.848Z,76.55
2019-04-01T07:34:04.794Z,68.67
2019-04-01T07:36:33.718Z,75.87
2019-04-01T07:39:03.633Z,68.10
2019-04-01T07:41:32.644Z,74.90
2019-04-01T07:44:02.574Z,81.12
2019-04-01T07:46:31.516Z,81.50
2019-04-01T07:49:00.534Z,92.72
2019-04-01T07:51:29.571Z,81.35
2019-04-01T07:53:58.570Z,88.92
2019-04-01T07:56:27.590Z,77.70
2019-04-01T07:58:56.581Z,72.80
2019-04-01T08:01:25.516Z,83.00
2019-04-01T08:03:54.437Z,75.05
2019-04-01T08:06:23.443Z,73.95
2019-04-01T08:08:52.471Z,72.22
2019-04-01T08:11:21.386Z,73.85
2019-04-01T08:13:50.385Z,71.30
2019-04-01T08:16:20.384Z,82.12
2019-04-01T08:18:49.438Z,72.45
2019-04-01T08:21:18.434Z,75.60
2019-04-01T08:23:47.440Z,75.57
2019-04-01T08:26:16.449Z,89.60
2019-04-01T08:28:45.496Z,79.75
2019-04-01T08:31:14.499Z,81.47
2019-04-01T08:33:43.514Z,79.35
2019-04-01T08:36:12.513Z,75.50
2019-04-01T08:38:41.551Z,81.25
2019-04-01T08:41:10.549Z,76.90
2019-04-01T08:43:39.628Z,69.33
2019-04-01T08:46:08.653Z,75.40
2019-04-01T08:48:37.710Z,72.70
2019-04-01T08:51:06.727Z,77.27
2019-04-01T08:53:35.861Z,68.90
2019-04-01T08:56:04.993Z,77.07
2019-04-01T08:58:33.965Z,66.07
2019-04-01T09:01:03.046Z,67.73
2019-04-01T09:03:32.048Z,66.92
2019-04-01T09:06:01.557Z,67.00
2019-04-01T09:08:31.164Z,65.50
2019-04-01T09:11:00.585Z,72.73
2019-04-01T09:13:29.884Z,67.80
2019-04-01T09:15:59.902Z,73.78
2019-04-01T09:18:28.812Z,73.30
2019-04-01T09:20:57.843Z,77.90
2019-04-01T09:23:26.809Z,65.20
2019-04-01T09:25:55.905Z,73.00
2019-04-01T09:28:24.818Z,64.80
2019-04-01T09:30:53.713Z,73.42
2019-04-01T09:33:22.721Z,65.70
2019-04-01T09:35:51.764Z,73.00
2019-04-01T09:38:20.791Z,64.50
2019-04-01T09:40:49.829Z,68.20
2019-04-01T09:43:18.818Z,64.63
2019-04-01T09:45:47.886Z,72.60
2019-04-01T09:48:16.790Z,78.50
2019-04-01T09:50:45.890Z,64.07
2019-04-01T09:53:14.941Z,67.45
2019-04-01T09:55:43.979Z,70.43
2019-04-01T09:58:13.014Z,73.30
2019-04-01T10:00:42.077Z,61.73
2019-04-01T10:03:11.096Z,64.30
2019-04-01T10:05:40.051Z,72.07
2019-04-01T10:08:08.977Z,70.83
2019-04-01T10:10:37.972Z,65.07
2019-04-01T10:13:06.938Z,80.63
2019-04-01T10:15:35.854Z,64.27
2019-04-01T10:18:04.894Z,71.03
2019-04-01T10:20:33.826Z,66.40
2019-04-01T10:23:02.821Z,77.17
2019-04-01T10:25:31.841Z,61.60
2019-04-01T10:28:01.554Z,75.47
2019-04-01T10:30:30.623Z,70.93
2019-04-01T10:33:02.094Z,61.10
2019-04-01T10:35:30.286Z,69.87
2019-04-01T10:37:59.318Z,66.50
2019-04-01T10:40:28.348Z,53.13
2019-04-01T10:42:57.378Z,58.13
2019-04-01T10:45:26.404Z,62.70
2019-04-01T10:47:55.427Z,67.00
2019-04-01T10:50:24.598Z,67.53
2019-04-01T10:52:53.809Z,58.57
2019-04-01T10:55:22.827Z,61.43
2019-04-01T10:57:53.865Z,57.67
2019-04-01T11:00:22.700Z,64.70
2019-04-01T11:02:51.803Z,57.63
2019-04-01T11:05:20.912Z,64.30
2019-04-01T11:07:49.998Z,57.33
2019-04-01T11:10:19.194Z,60.67
2019-04-01T11:12:48.239Z,61.23
2019-04-01T11:15:18.206Z,56.90
2019-04-01T11:17:47.214Z,56.87
2019-04-01T11:20:16.231Z,63.73
2019-04-01T11:22:45.254Z,57.00
2019-04-01T11:25:14.255Z,57.20
2019-04-01T11:27:43.274Z,56.60
2019-04-01T11:30:13.840Z,58.73
2019-04-01T11:32:43.170Z,71.33
2019-04-01T11:35:12.297Z,61.63
2019-04-01T11:37:41.669Z,54.83
2019-04-01T11:40:12.265Z,52.80
2019-04-01T11:42:41.600Z,58.10
2019-04-01T11:45:10.860Z,60.17
2019-04-01T11:47:40.020Z,53.23
2019-04-01T11:50:09.212Z,59.87
2019-04-01T11:52:38.549Z,54.20
2019-04-01T11:55:09.176Z,61.77
2019-04-01T11:57:38.736Z,53.87
2019-04-01T12:00:13.260Z,48.40
2019-04-01T12:02:42.641Z,47.43
2019-04-01T12:05:11.832Z,52.33
2019-04-01T12:07:40.938Z,52.27
2019-04-01T12:10:10.922Z,45.33
2019-04-01T12:12:40.878Z,42.13
2019-04-01T12:15:12.257Z,46.63
2019-04-01T12:17:41.691Z,48.53
2019-04-01T12:20:11.339Z,53.47
2019-04-01T12:22:45.235Z,48.43
2019-04-01T12:25:12.098Z,49.90
2019-04-01T12:27:41.172Z,46.30
2019-04-01T12:30:10.360Z,46.83
2019-04-01T12:32:39.464Z,50.03
2019-04-01T12:35:08.558Z,48.70
2019-04-01T12:37:37.642Z,50.23
2019-04-01T12:40:07.897Z,50.70
2019-04-01T12:42:36.941Z,42.23
2019-04-01T12:45:06.829Z,44.00
2019-04-01T12:47:35.833Z,44.97
2019-04-01T12:50:05.114Z,40.97
2019-04-01T12:52:34.163Z,42.47
2019-04-01T12:55:03.378Z,41.40
2019-04-01T12:57:32.470Z,41.53
2019-04-01T13:00:01.603Z,42.50
2019-04-01T13:02:30.630Z,38.13
2019-04-01T13:04:59.657Z,44.30
2019-04-01T13:07:28.738Z,39.27
2019-04-01T13:09:57.862Z,43.43
2019-04-01T13:12:27.543Z,36.60
2019-04-01T13:14:56.882Z,42.63
2019-04-01T13:17:25.841Z,42.70
2019-04-01T13:19:54.785Z,39.97
2019-04-01T13:22:23.785Z,48.30
2019-04-01T13:24:52.715Z,41.13
2019-04-01T13:27:21.825Z,40.53
2019-04-01T13:29:50.740Z,41.27
2019-04-01T13:32:20.571Z,41.90
2019-04-01T13:34:49.609Z,43.07
2019-04-01T13:37:18.699Z,40.70
2019-04-01T13:39:47.648Z,38.90
2019-04-01T13:42:16.960Z,44.57
2019-04-01T13:44:45.888Z,43.63
2019-04-01T13:47:14.923Z,42.53
2019-04-01T13:49:43.904Z,43.03
2019-04-01T13:52:12.909Z,42.40
2019-04-01T13:54:41.976Z,42.40
2019-04-01T13:57:10.976Z,44.43
2019-04-01T13:59:49.139Z,40.70
2019-04-01T14:02:10.752Z,45.87
2019-04-01T14:04:39.873Z,39.43
2019-04-01T14:07:08.889Z,46.40
2019-04-01T14:09:37.891Z,44.20
2019-04-01T14:12:06.947Z,43.13
2019-04-01T14:14:36.969Z,40.43
2019-04-01T14:17:06.080Z,45.43
2019-04-01T14:19:34.978Z,41.73
2019-04-01T14:22:05.057Z,38.70
2019-04-01T14:24:34.007Z,37.57
2019-04-01T14:27:04.097Z,37.93
2019-04-01T14:29:32.933Z,40.90
2019-04-01T14:32:01.959Z,42.07
2019-04-01T14:34:31.049Z,38.40
2019-04-01T14:37:00.168Z,39.17
2019-04-01T14:39:30.487Z,36.80
2019-04-01T14:41:59.906Z,38.80
2019-04-01T14:44:28.967Z,34.23
2019-04-01T14:46:57.825Z,40.30
2019-04-01T14:49:26.760Z,36.40
2019-04-01T14:51:55.872Z,35.40
2019-04-01T14:54:24.730Z,35.50
2019-04-01T14:56:54.706Z,31.13
2019-04-01T14:59:23.746Z,33.50
2019-04-01T15:01:52.844Z,36.10
2019-04-01T15:04:21.864Z,34.03
2019-04-01T15:06:50.941Z,32.63
2019-04-01T15:09:23.318Z,33.07
2019-04-01T15:11:50.645Z,35.50
2019-04-01T15:14:19.528Z,35.10
2019-04-01T15:16:48.478Z,32.47
2019-04-01T15:19:17.459Z,33.53
2019-04-01T15:21:47.505Z,35.77
2019-04-01T15:24:16.425Z,33.77
2019-04-01T15:26:45.422Z,35.53
2019-04-01T15:29:16.603Z,36.80
2019-04-01T15:31:45.540Z,35.87
2019-04-01T15:34:14.464Z,35.07
2019-04-01T15:36:43.408Z,36.77
2019-04-01T15:39:14.315Z,37.37
2019-04-01T15:41:43.270Z,35.10
2019-04-01T15:44:12.249Z,34.97
2019-04-01T15:46:41.202Z,31.87
2019-04-01T15:49:11.437Z,33.90
2019-04-01T15:51:40.644Z,33.80
2019-04-01T15:54:09.574Z,35.60
2019-04-01T15:56:41.803Z,36.33
2019-04-01T15:59:10.381Z,36.20
2019-04-01T16:01:39.362Z,33.50
2019-04-01T16:04:08.654Z,33.10
2019-04-01T16:06:38.938Z,39.87
2019-04-01T16:09:08.327Z,33.33
2019-04-01T16:11:37.278Z,35.17
2019-04-01T16:14:06.366Z,37.80
2019-04-01T16:16:36.181Z,34.90
2019-04-01T16:19:05.272Z,34.87
2019-04-01T16:21:34.270Z,35.13
2019-04-01T16:24:03.232Z,33.03
2019-04-01T16:26:32.220Z,28.33
2019-04-01T16:29:01.144Z,35.67
2019-04-01T16:31:30.138Z,33.10
2019-04-01T16:33:59.221Z,36.70
2019-04-01T16:36:28.192Z,37.20
2019-04-01T16:38:57.234Z,34.63
2019-04-01T16:41:26.310Z,39.70
2019-04-01T16:43:55.405Z,34.70
2019-04-01T16:46:24.483Z,41.07
2019-04-01T16:48:53.489Z,37.40
2019-04-01T16:51:22.549Z,35.73
2019-04-01T16:53:51.581Z,38.43
2019-04-01T16:56:20.512Z,32.00
2019-04-01T16:58:50.558Z,32.43
2019-04-01T17:01:19.705Z,35.10
2019-04-01T17:03:48.905Z,36.80
2019-04-01T17:06:18.268Z,30.83
2019-04-01T17:08:48.363Z,35.50
2019-04-01T17:11:17.672Z,35.80
2019-04-01T17:13:46.717Z,35.73
2019-04-01T17:16:16.734Z,35.47
2019-04-01T17:18:45.901Z,37.27
2019-04-01T17:21:14.981Z,40.80
2019-04-01T17:23:44.989Z,41.27
2019-04-01T17:26:14.132Z,42.20
2019-04-01T17:28:43.211Z,37.93
2019-04-01T17:31:19.116Z,41.23
2019-04-01T17:33:50.572Z,38.87
2019-04-01T17:36:21.567Z,46.77
2019-04-01T17:38:50.644Z,43.00
2019-04-01T17:41:19.909Z,46.73
2019-04-01T17:43:49.038Z,49.77
2019-04-01T17:46:18.115Z,41.70
2019-04-01T17:48:47.253Z,40.47
2019-04-01T17:51:16.276Z,42.60
2019-04-01T17:53:45.451Z,38.90
2019-04-01T17:56:14.591Z,39.50
2019-04-01T17:58:44.428Z,41.60
2019-04-01T18:01:13.740Z,51.30
2019-04-01T18:03:42.678Z,37.83
2019-04-01T18:06:11.681Z,37.30
2019-04-01T18:08:40.721Z,46.50
2019-04-01T18:11:09.687Z,43.93
2019-04-01T18:13:38.694Z,45.43
2019-04-01T18:16:07.761Z,42.10
2019-04-01T18:18:36.773Z,40.90
2019-04-01T18:21:05.785Z,40.20
2019-04-01T18:23:34.745Z,45.30
2019-04-01T18:26:03.650Z,41.93
2019-04-01T18:28:32.590Z,43.70
2019-04-01T18:31:01.552Z,40.67
2019-04-01T18:33:31.677Z,41.70
2019-04-01T18:36:01.567Z,49.40
2019-04-01T18:38:30.503Z,45.60
2019-04-01T18:40:59.437Z,47.17
2019-04-01T18:43:28.553Z,46.60
2019-04-01T18:45:57.517Z,49.40
2019-04-01T18:48:26.471Z,46.53
2019-04-01T18:50:55.536Z,62.43
2019-04-01T18:53:24.524Z,52.60
2019-04-01T18:55:53.549Z,48.60
2019-04-01T18:58:22.420Z,41.33
2019-04-01T19:00:51.532Z,41.07
2019-04-01T19:03:24.074Z,41.80
2019-04-01T19:05:52.853Z,43.40
2019-04-01T19:08:21.881Z,63.03
2019-04-01T19:11:01.805Z,45.50
2019-04-01T19:13:22.546Z,45.43
2019-04-01T19:15:53.542Z,45.07
2019-04-01T19:18:24.277Z,45.40
2019-04-01T19:20:56.984Z,45.87
2019-04-01T19:23:24.093Z,42.50
2019-04-01T19:25:53.226Z,52.53
2019-04-01T19:28:23.461Z,47.33
2019-04-01T19:30:53.373Z,52.30
2019-04-01T19:33:22.361Z,46.07
2019-04-01T19:35:51.474Z,47.40
2019-04-01T19:38:28.483Z,45.20
2019-04-01T19:40:59.785Z,44.63
2019-04-01T19:43:31.404Z,50.07
2019-04-01T19:46:01.534Z,49.37
2019-04-01T19:48:31.344Z,48.57
2019-04-01T19:51:01.237Z,48.00
2019-04-01T19:53:30.345Z,50.40
2019-04-01T19:55:59.353Z,43.13
2019-04-01T19:58:28.465Z,55.07
2019-04-01T20:00:57.572Z,51.13
2019-04-01T20:03:26.746Z,51.83
2019-04-01T20:05:56.902Z,50.43
2019-04-01T20:08:25.954Z,51.20
2019-04-01T20:10:54.962Z,51.17
2019-04-01T20:13:23.937Z,47.93
2019-04-01T20:15:52.883Z,54.40
2019-04-01T20:18:22.860Z,54.43
2019-04-01T20:20:52.064Z,48.20
2019-04-01T20:23:21.074Z,47.20
2019-04-01T20:25:50.235Z,53.00
2019-04-01T20:28:19.326Z,45.80
2019-04-01T20:30:48.405Z,48.85
2019-04-01T20:33:18.447Z,54.20
2019-04-01T20:35:48.144Z,59.43
2019-04-01T20:38:17.116Z,54.50
2019-04-01T20:40:46.223Z,59.67
2019-04-01T20:43:15.614Z,57.80
2019-04-01T20:45:45.765Z,62.55
2019-04-01T20:48:14.744Z,52.37
2019-04-01T20:50:43.841Z,60.30
2019-04-01T20:53:13.850Z,55.60
2019-04-01T20:55:48.377Z,56.77
2019-04-01T20:58:14.189Z,62.60
2019-04-01T21:00:43.520Z,55.80
2019-04-01T21:03:12.448Z,58.30
2019-04-01T21:05:41.449Z,57.43
2019-04-01T21:08:10.465Z,59.23
2019-04-01T21:10:39.546Z,60.00
2019-04-01T21:13:09.412Z,54.63
2019-04-01T21:15:38.383Z,55.50
2019-04-01T21:18:07.316Z,52.60
2019-04-01T21:20:36.179Z,55.97
2019-04-01T21:23:06.203Z,51.75
2019-04-01T21:25:36.068Z,51.10
2019-04-01T21:28:05.156Z,49.27
2019-04-01T21:30:34.249Z,57.87
2019-04-01T21:33:03.212Z,50.07
2019-04-01T21:35:32.184Z,56.97
2019-04-01T21:38:03.166Z,55.93
2019-04-01T21:40:33.109Z,59.05
2019-04-01T21:43:03.357Z,66.33
2019-04-01T21:45:32.602Z,58.45
2019-04-01T21:48:01.617Z,60.17
2019-04-01T21:50:35.032Z,52.33
2019-04-01T21:53:04.214Z,62.47
2019-04-01T21:55:33.297Z,53.85
2019-04-01T21:58:03.230Z,57.13
2019-04-01T22:00:50.396Z,53.65
2019-04-01T22:03:19.449Z,64.77
2019-04-01T22:05:48.505Z,57.77
2019-04-01T22:08:17.776Z,63.97
2019-04-01T22:10:46.996Z,61.03
2019-04-01T22:13:15.937Z,56.68
2019-04-01T22:15:46.535Z,57.00
2019-04-01T22:18:15.493Z,58.87
2019-04-01T22:20:44.516Z,52.53
2019-04-01T22:23:13.641Z,62.30
2019-04-01T22:25:42.560Z,67.53
2019-04-01T22:28:11.614Z,55.70
2019-04-01T22:30:40.633Z,58.35
2019-04-01T22:33:11.114Z,59.35
2019-04-01T22:35:41.569Z,59.13
2019-04-01T22:38:10.924Z,67.10
2019-04-01T22:40:39.957Z,54.90
2019-04-01T22:43:09.918Z,57.13
2019-04-01T22:45:38.990Z,59.05
2019-04-01T22:48:07.972Z,57.48
2019-04-01T22:50:37.054Z,57.43
2019-04-01T22:53:06.072Z,55.75
2019-04-01T22:55:35.068Z,58.65
2019-04-01T22:58:05.150Z,56.23
2019-04-01T23:00:34.246Z,59.20
2019-04-01T23:03:03.331Z,57.00
2019-04-01T23:05:32.361Z,57.95
2019-04-01T23:08:02.386Z,57.17
2019-04-01T23:10:31.756Z,59.73
2019-04-01T23:13:01.648Z,59.60
2019-04-01T23:15:30.648Z,55.80
2019-04-01T23:17:59.623Z,62.10
2019-04-01T23:20:29.537Z,54.10
2019-04-01T23:23:03.505Z,63.05
2019-04-01T23:25:32.435Z,58.58
2019-04-01T23:28:01.585Z,57.77
2019-04-01T23:30:30.733Z,55.70
2019-04-01T23:33:01.600Z,61.57
2019-04-01T23:35:30.613Z,58.75
2019-04-01T23:38:01.602Z,55.60
2019-04-01T23:40:32.443Z,64.40
2019-04-01T23:43:01.807Z,63.77
2019-04-01T23:45:30.836Z,62.80
2019-04-01T23:47:59.876Z,67.78
2019-04-01T23:50:28.945Z,66.60
2019-04-01T23:52:57.904Z,58.92
2019-04-01T23:55:26.840Z,63.90
2019-04-01T23:57:55.930Z,63.58
